sensor_id;sensor_type;location;lat;lon;timestamp;P1;durP1;ratioP1;P2;durP2;ratioP2
5878;SDS011;2965;42.640;23.370;2023-03-20T05:02:32;11.00;;;7.53;;
5878;SDS011;2965;42.640;23.370;2023-03-20T05:04:58;14.73;;;8.97;;
5878;SDS011;2965;42.640;23.370;2023-03-20T05:07:24;15.20;;;8.60;;
5878;SDS011;2965;42.640;23.370;2023-03-20T05:09:50;24.53;;;11.90;;
5878;SDS011;2965;42.640;23.370;2023-03-20T05:12:15;19.03;;;10.33;;
5878;SDS011;2965;42.640;23.370;2023-03-20T05:14:40;12.57;;;9.03;;
5878;SDS011;2965;42.640;23.370;2023-03-20T05:17:06;15.17;;;9.90;;
5878;SDS011;2965;42.640;23.370;2023-03-20T05:19:31;9.50;;;8.50;;
5878;SDS011;2965;42.640;23.370;2023-03-20T05:21:57;14.10;;;9.53;;
5878;SDS011;2965;42.640;23.370;2023-03-20T05:24:22;13.03;;;8.20;;
5878;SDS011;2965;42.640;23.370;2023-03-20T05:26:47;12.60;;;8.90;;
5878;SDS011;2965;42.640;23.370;2023-03-20T05:29:13;16.47;;;9.10;;
5878;SDS011;2965;42.640;23.370;2023-03-20T05:31:38;10.70;;;8.07;;
5878;SDS011;2965;42.640;23.370;2023-03-20T05:34:04;15.30;;;9.53;;
5878;SDS011;2965;42.640;23.370;2023-03-20T05:36:30;10.63;;;9.50;;
5878;SDS011;2965;42.640;23.370;2023-03-20T05:38:55;12.83;;;8.67;;
5878;SDS011;2965;42.640;23.370;2023-03-20T05:41:21;14.43;;;9.70;;
5878;SDS011;2965;42.640;23.370;2023-03-20T05:43:47;15.00;;;7.93;;
5878;SDS011;2965;42.640;23.370;2023-03-20T05:46:12;13.73;;;8.53;;
5878;SDS011;2965;42.640;23.370;2023-03-20T05:48:38;19.97;;;10.40;;
5878;SDS011;2965;42.640;23.370;2023-03-20T05:51:04;19.20;;;9.50;;
5878;SDS011;2965;42.640;23.370;2023-03-20T05:53:29;14.10;;;8.40;;
5878;SDS011;2965;42.640;23.370;2023-03-20T05:55:55;10.20;;;9.10;;
5878;SDS011;2965;42.640;23.370;2023-03-20T05:58:20;14.47;;;9.57;;
5878;SDS011;2965;42.640;23.370;2023-03-20T06:00:46;15.13;;;9.50;;
5878;SDS011;2965;42.640;23.370;2023-03-20T06:03:11;15.40;;;10.97;;
5878;SDS011;2965;42.640;23.370;2023-03-20T06:05:37;14.90;;;10.57;;
5878;SDS011;2965;42.640;23.370;2023-03-20T06:08:02;22.37;;;13.20;;
5878;SDS011;2965;42.640;23.370;2023-03-20T06:10:28;23.13;;;12.13;;
5878;SDS011;2965;42.640;23.370;2023-03-20T06:12:55;21.23;;;12.10;;
5878;SDS011;2965;42.640;23.370;2023-03-20T06:15:21;29.50;;;14.50;;
5878;SDS011;2965;42.640;23.370;2023-03-20T06:17:47;26.00;;;15.23;;
5878;SDS011;2965;42.640;23.370;2023-03-20T06:20:12;21.90;;;13.23;;
5878;SDS011;2965;42.640;23.370;2023-03-20T06:22:38;23.77;;;13.83;;
5878;SDS011;2965;42.640;23.370;2023-03-20T06:25:03;39.00;;;17.60;;
5878;SDS011;2965;42.640;23.370;2023-03-20T06:27:30;24.73;;;14.07;;
5878;SDS011;2965;42.640;23.370;2023-03-20T06:29:56;27.53;;;15.30;;
5878;SDS011;2965;42.640;23.370;2023-03-20T06:32:21;26.77;;;15.53;;
5878;SDS011;2965;42.640;23.370;2023-03-20T06:34:49;29.50;;;15.60;;
5878;SDS011;2965;42.640;23.370;2023-03-20T06:37:15;27.97;;;14.97;;
5878;SDS011;2965;42.640;23.370;2023-03-20T06:39:40;30.13;;;16.13;;
5878;SDS011;2965;42.640;23.370;2023-03-20T06:42:06;33.07;;;20.00;;
5878;SDS011;2965;42.640;23.370;2023-03-20T06:44:31;36.40;;;18.87;;
5878;SDS011;2965;42.640;23.370;2023-03-20T06:46:57;45.33;;;21.27;;
5878;SDS011;2965;42.640;23.370;2023-03-20T06:51:53;37.87;;;18.77;;
5878;SDS011;2965;42.640;23.370;2023-03-20T06:54:19;33.47;;;19.53;;
5878;SDS011;2965;42.640;23.370;2023-03-20T06:56:44;33.13;;;18.33;;
5878;SDS011;2965;42.640;23.370;2023-03-20T06:59:10;28.30;;;18.40;;
5878;SDS011;2965;42.640;23.370;2023-03-20T07:01:36;44.53;;;20.37;;
5878;SDS011;2965;42.640;23.370;2023-03-20T07:04:01;36.30;;;19.23;;
5878;SDS011;2965;42.640;23.370;2023-03-20T07:06:27;36.60;;;19.30;;
5878;SDS011;2965;42.640;23.370;2023-03-20T07:08:52;35.63;;;19.60;;
5878;SDS011;2965;42.640;23.370;2023-03-20T07:11:18;32.17;;;17.80;;
5878;SDS011;2965;42.640;23.370;2023-03-20T07:13:43;41.50;;;18.40;;
5878;SDS011;2965;42.640;23.370;2023-03-20T07:16:08;58.70;;;26.77;;
5878;SDS011;2965;42.640;23.370;2023-03-20T07:18:34;79.97;;;36.60;;
5878;SDS011;2965;42.640;23.370;2023-03-20T07:21:01;30.63;;;18.07;;
5878;SDS011;2965;42.640;23.370;2023-03-20T07:23:28;31.40;;;16.67;;
5878;SDS011;2965;42.640;23.370;2023-03-20T07:25:54;34.30;;;18.10;;
5878;SDS011;2965;42.640;23.370;2023-03-20T07:28:20;24.10;;;14.97;;
5878;SDS011;2965;42.640;23.370;2023-03-20T07:30:45;27.37;;;16.43;;
5878;SDS011;2965;42.640;23.370;2023-03-20T07:33:11;24.13;;;15.17;;
5878;SDS011;2965;42.640;23.370;2023-03-20T07:35:36;29.20;;;17.07;;
5878;SDS011;2965;42.640;23.370;2023-03-20T07:38:03;32.23;;;16.07;;
5878;SDS011;2965;42.640;23.370;2023-03-20T07:40:29;26.63;;;15.90;;
5878;SDS011;2965;42.640;23.370;2023-03-20T07:42:55;38.70;;;17.30;;
5878;SDS011;2965;42.640;23.370;2023-03-20T07:45:21;27.93;;;14.67;;
5878;SDS011;2965;42.640;23.370;2023-03-20T07:47:47;23.33;;;14.10;;
5878;SDS011;2965;42.640;23.370;2023-03-20T07:50:13;18.00;;;11.90;;
5878;SDS011;2965;42.640;23.370;2023-03-20T07:52:38;14.10;;;10.30;;
5878;SDS011;2965;42.640;23.370;2023-03-20T07:55:04;18.67;;;12.07;;
5878;SDS011;2965;42.640;23.370;2023-03-20T07:57:30;19.03;;;11.70;;
5878;SDS011;2965;42.640;23.370;2023-03-20T07:59:55;18.60;;;11.23;;
5878;SDS011;2965;42.640;23.370;2023-03-20T08:02:21;12.60;;;9.97;;
5878;SDS011;2965;42.640;23.370;2023-03-20T08:04:46;17.53;;;11.90;;
5878;SDS011;2965;42.640;23.370;2023-03-20T08:07:11;16.70;;;10.90;;
5878;SDS011;2965;42.640;23.370;2023-03-20T08:09:37;25.60;;;14.03;;
5878;SDS011;2965;42.640;23.370;2023-03-20T08:12:03;23.70;;;15.27;;
5878;SDS011;2965;42.640;23.370;2023-03-20T08:14:29;19.73;;;12.90;;
5878;SDS011;2965;42.640;23.370;2023-03-20T08:16:55;23.20;;;14.80;;
5878;SDS011;2965;42.640;23.370;2023-03-20T08:19:20;26.53;;;14.70;;
5878;SDS011;2965;42.640;23.370;2023-03-20T08:21:46;32.57;;;15.53;;
5878;SDS011;2965;42.640;23.370;2023-03-20T08:24:11;28.67;;;15.03;;
5878;SDS011;2965;42.640;23.370;2023-03-20T08:26:37;22.57;;;15.40;;
5878;SDS011;2965;42.640;23.370;2023-03-20T08:29:02;20.60;;;11.57;;
5878;SDS011;2965;42.640;23.370;2023-03-20T08:31:28;29.17;;;14.73;;
5878;SDS011;2965;42.640;23.370;2023-03-20T08:33:54;29.00;;;13.40;;
5878;SDS011;2965;42.640;23.370;2023-03-20T08:36:19;20.60;;;13.87;;
5878;SDS011;2965;42.640;23.370;2023-03-20T08:38:46;32.93;;;12.67;;
5878;SDS011;2965;42.640;23.370;2023-03-20T08:41:12;31.53;;;13.50;;
5878;SDS011;2965;42.640;23.370;2023-03-20T08:43:38;16.83;;;11.93;;
5878;SDS011;2965;42.640;23.370;2023-03-20T08:46:03;28.33;;;11.70;;
5878;SDS011;2965;42.640;23.370;2023-03-20T08:48:29;26.67;;;14.17;;
5878;SDS011;2965;42.640;23.370;2023-03-20T08:50:54;20.97;;;13.30;;
5878;SDS011;2965;42.640;23.370;2023-03-20T08:53:20;22.17;;;14.30;;
5878;SDS011;2965;42.640;23.370;2023-03-20T08:55:48;31.50;;;14.70;;
5878;SDS011;2965;42.640;23.370;2023-03-20T08:58:15;29.40;;;14.60;;
5878;SDS011;2965;42.640;23.370;2023-03-20T09:00:41;36.10;;;15.20;;
5878;SDS011;2965;42.640;23.370;2023-03-20T09:03:10;24.90;;;15.73;;
5878;SDS011;2965;42.640;23.370;2023-03-20T09:05:40;27.83;;;16.30;;
5878;SDS011;2965;42.640;23.370;2023-03-20T09:08:08;49.70;;;17.83;;
5878;SDS011;2965;42.640;23.370;2023-03-20T09:10:33;46.07;;;18.80;;
5878;SDS011;2965;42.640;23.370;2023-03-20T09:12:59;46.00;;;20.00;;
5878;SDS011;2965;42.640;23.370;2023-03-20T09:15:25;43.63;;;19.47;;
5878;SDS011;2965;42.640;23.370;2023-03-20T09:17:51;28.73;;;17.77;;
5878;SDS011;2965;42.640;23.370;2023-03-20T09:20:16;35.83;;;19.67;;
5878;SDS011;2965;42.640;23.370;2023-03-20T09:22:41;32.40;;;18.70;;
5878;SDS011;2965;42.640;23.370;2023-03-20T09:25:09;31.57;;;17.20;;
5878;SDS011;2965;42.640;23.370;2023-03-20T09:27:34;40.70;;;19.20;;
5878;SDS011;2965;42.640;23.370;2023-03-20T09:30:00;30.33;;;18.27;;
5878;SDS011;2965;42.640;23.370;2023-03-20T09:32:25;32.20;;;18.03;;
5878;SDS011;2965;42.640;23.370;2023-03-20T09:34:50;32.77;;;17.43;;
5878;SDS011;2965;42.640;23.370;2023-03-20T09:37:16;27.73;;;16.87;;
5878;SDS011;2965;42.640;23.370;2023-03-20T09:39:41;48.70;;;17.67;;
5878;SDS011;2965;42.640;23.370;2023-03-20T09:50:45;31.80;;;17.03;;
5878;SDS011;2965;42.640;23.370;2023-03-20T09:53:23;33.40;;;17.63;;
5878;SDS011;2965;42.640;23.370;2023-03-20T09:55:54;34.40;;;19.47;;
5878;SDS011;2965;42.640;23.370;2023-03-20T09:58:25;60.40;;;20.53;;
5878;SDS011;2965;42.640;23.370;2023-03-20T10:00:55;35.57;;;18.67;;
5878;SDS011;2965;42.640;23.370;2023-03-20T10:03:25;29.57;;;18.07;;
5878;SDS011;2965;42.640;23.370;2023-03-20T10:05:58;39.13;;;19.93;;
5878;SDS011;2965;42.640;23.370;2023-03-20T10:08:44;41.13;;;19.93;;
5878;SDS011;2965;42.640;23.370;2023-03-20T10:14:20;33.63;;;19.53;;
5878;SDS011;2965;42.640;23.370;2023-03-20T10:17:10;32.60;;;18.40;;
5878;SDS011;2965;42.640;23.370;2023-03-20T10:19:57;39.53;;;18.27;;
5878;SDS011;2965;42.640;23.370;2023-03-20T10:22:47;37.00;;;18.57;;
5878;SDS011;2965;42.640;23.370;2023-03-20T10:25:53;33.87;;;18.10;;
5878;SDS011;2965;42.640;23.370;2023-03-20T10:33:28;24.60;;;14.87;;
5878;SDS011;2965;42.640;23.370;2023-03-20T10:41:40;31.20;;;16.30;;
5878;SDS011;2965;42.640;23.370;2023-03-20T10:44:13;24.67;;;14.00;;
5878;SDS011;2965;42.640;23.370;2023-03-20T10:46:53;19.90;;;12.07;;
5878;SDS011;2965;42.640;23.370;2023-03-20T10:49:38;22.67;;;13.37;;
5878;SDS011;2965;42.640;23.370;2023-03-20T10:52:12;17.33;;;11.40;;
5878;SDS011;2965;42.640;23.370;2023-03-20T10:54:47;18.90;;;13.17;;
5878;SDS011;2965;42.640;23.370;2023-03-20T10:57:20;26.77;;;14.37;;
5878;SDS011;2965;42.640;23.370;2023-03-20T10:59:48;32.47;;;13.57;;
5878;SDS011;2965;42.640;23.370;2023-03-20T11:02:16;27.10;;;13.17;;
5878;SDS011;2965;42.640;23.370;2023-03-20T11:04:43;36.70;;;13.83;;
5878;SDS011;2965;42.640;23.370;2023-03-20T11:09:53;27.20;;;12.60;;
5878;SDS011;2965;42.640;23.370;2023-03-20T11:12:33;23.77;;;14.23;;
5878;SDS011;2965;42.640;23.370;2023-03-20T11:17:49;20.10;;;14.30;;
5878;SDS011;2965;42.640;23.370;2023-03-20T11:20:18;21.83;;;13.73;;
5878;SDS011;2965;42.640;23.370;2023-03-20T11:22:45;38.40;;;18.40;;
5878;SDS011;2965;42.640;23.370;2023-03-20T11:26:14;24.20;;;13.80;;
5878;SDS011;2965;42.640;23.370;2023-03-20T11:28:29;19.97;;;13.60;;
5878;SDS011;2965;42.640;23.370;2023-03-20T11:30:58;19.90;;;12.80;;
5878;SDS011;2965;42.640;23.370;2023-03-20T11:33:27;23.53;;;13.50;;
5878;SDS011;2965;42.640;23.370;2023-03-20T11:35:55;27.77;;;14.17;;
5878;SDS011;2965;42.640;23.370;2023-03-20T11:38:22;24.13;;;13.67;;
5878;SDS011;2965;42.640;23.370;2023-03-20T11:40:48;25.03;;;13.60;;
5878;SDS011;2965;42.640;23.370;2023-03-20T11:45:50;24.80;;;14.27;;
5878;SDS011;2965;42.640;23.370;2023-03-20T11:48:21;33.33;;;14.97;;
5878;SDS011;2965;42.640;23.370;2023-03-20T11:51:07;21.43;;;13.07;;
5878;SDS011;2965;42.640;23.370;2023-03-20T11:53:36;20.93;;;12.80;;
5878;SDS011;2965;42.640;23.370;2023-03-20T11:56:11;19.37;;;14.10;;
5878;SDS011;2965;42.640;23.370;2023-03-20T12:01:47;24.77;;;13.47;;
5878;SDS011;2965;42.640;23.370;2023-03-20T12:04:28;19.10;;;14.10;;
5878;SDS011;2965;42.640;23.370;2023-03-20T12:09:41;25.57;;;14.90;;
5878;SDS011;2965;42.640;23.370;2023-03-20T12:12:18;20.63;;;12.50;;
5878;SDS011;2965;42.640;23.370;2023-03-20T12:17:57;17.20;;;12.53;;
5878;SDS011;2965;42.640;23.370;2023-03-20T12:31:14;16.97;;;12.07;;
5878;SDS011;2965;42.640;23.370;2023-03-20T12:36:46;22.97;;;14.70;;
5878;SDS011;2965;42.640;23.370;2023-03-20T12:47:14;15.10;;;10.97;;
5878;SDS011;2965;42.640;23.370;2023-03-20T12:50:06;19.10;;;10.00;;
5878;SDS011;2965;42.640;23.370;2023-03-20T12:55:28;15.40;;;11.63;;
5878;SDS011;2965;42.640;23.370;2023-03-20T13:01:04;19.87;;;9.90;;
5878;SDS011;2965;42.640;23.370;2023-03-20T13:03:44;19.10;;;9.07;;
5878;SDS011;2965;42.640;23.370;2023-03-20T13:06:14;15.43;;;9.60;;
5878;SDS011;2965;42.640;23.370;2023-03-20T13:12:01;18.63;;;9.10;;
5878;SDS011;2965;42.640;23.370;2023-03-20T13:14:44;12.67;;;8.57;;
5878;SDS011;2965;42.640;23.370;2023-03-20T13:25:01;10.90;;;7.00;;
5878;SDS011;2965;42.640;23.370;2023-03-20T13:27:49;5.60;;;5.20;;
5878;SDS011;2965;42.640;23.370;2023-03-20T13:30:44;5.93;;;5.50;;
5878;SDS011;2965;42.640;23.370;2023-03-20T13:36:15;6.13;;;5.10;;
5878;SDS011;2965;42.640;23.370;2023-03-20T13:39:15;9.77;;;5.20;;
5878;SDS011;2965;42.640;23.370;2023-03-20T13:41:42;5.00;;;4.70;;
5878;SDS011;2965;42.640;23.370;2023-03-20T13:44:10;4.87;;;4.50;;
5878;SDS011;2965;42.640;23.370;2023-03-20T13:49:52;9.33;;;5.30;;
5878;SDS011;2965;42.640;23.370;2023-03-20T13:52:27;14.97;;;4.60;;
5878;SDS011;2965;42.640;23.370;2023-03-20T14:03:16;10.53;;;5.10;;
5878;SDS011;2965;42.640;23.370;2023-03-20T14:05:46;5.47;;;4.97;;
5878;SDS011;2965;42.640;23.370;2023-03-20T14:13:34;9.67;;;4.80;;
5878;SDS011;2965;42.640;23.370;2023-03-20T14:16:06;5.50;;;5.00;;
5878;SDS011;2965;42.640;23.370;2023-03-20T14:18:33;4.63;;;4.13;;
5878;SDS011;2965;42.640;23.370;2023-03-20T14:21:01;4.80;;;4.37;;
5878;SDS011;2965;42.640;23.370;2023-03-20T14:26:04;5.33;;;4.93;;
5878;SDS011;2965;42.640;23.370;2023-03-20T14:28:42;4.30;;;4.00;;
5878;SDS011;2965;42.640;23.370;2023-03-20T14:34:11;4.77;;;4.40;;
5878;SDS011;2965;42.640;23.370;2023-03-20T14:39:18;9.73;;;5.00;;
5878;SDS011;2965;42.640;23.370;2023-03-20T14:42:23;6.00;;;5.27;;
5878;SDS011;2965;42.640;23.370;2023-03-20T14:51:00;5.27;;;4.93;;
5878;SDS011;2965;42.640;23.370;2023-03-20T14:53:56;5.63;;;4.20;;
5878;SDS011;2965;42.640;23.370;2023-03-20T14:56:42;6.27;;;4.87;;
5878;SDS011;2965;42.640;23.370;2023-03-20T14:59:08;6.47;;;4.93;;
5878;SDS011;2965;42.640;23.370;2023-03-20T15:01:41;6.73;;;4.60;;
5878;SDS011;2965;42.640;23.370;2023-03-20T15:09:25;8.27;;;6.50;;
5878;SDS011;2965;42.640;23.370;2023-03-20T15:11:53;5.70;;;5.17;;
5878;SDS011;2965;42.640;23.370;2023-03-20T15:14:24;9.73;;;4.53;;
5878;SDS011;2965;42.640;23.370;2023-03-20T15:16:57;11.63;;;5.40;;
5878;SDS011;2965;42.640;23.370;2023-03-20T15:19:24;12.03;;;4.83;;
5878;SDS011;2965;42.640;23.370;2023-03-20T15:21:50;8.50;;;4.80;;
5878;SDS011;2965;42.640;23.370;2023-03-20T15:24:17;8.40;;;5.70;;
5878;SDS011;2965;42.640;23.370;2023-03-20T15:26:43;5.50;;;4.47;;
5878;SDS011;2965;42.640;23.370;2023-03-20T15:29:10;5.13;;;4.80;;
5878;SDS011;2965;42.640;23.370;2023-03-20T15:31:40;8.70;;;5.67;;
5878;SDS011;2965;42.640;23.370;2023-03-20T15:34:23;5.63;;;5.20;;
5878;SDS011;2965;42.640;23.370;2023-03-20T15:36:52;4.87;;;4.47;;
5878;SDS011;2965;42.640;23.370;2023-03-20T15:39:22;4.83;;;4.53;;
5878;SDS011;2965;42.640;23.370;2023-03-20T15:44:21;6.53;;;5.57;;
5878;SDS011;2965;42.640;23.370;2023-03-20T15:46:57;23.10;;;8.33;;
5878;SDS011;2965;42.640;23.370;2023-03-20T15:49:25;35.17;;;16.10;;
5878;SDS011;2965;42.640;23.370;2023-03-20T15:51:53;26.80;;;15.83;;
5878;SDS011;2965;42.640;23.370;2023-03-20T15:54:21;27.40;;;13.53;;
5878;SDS011;2965;42.640;23.370;2023-03-20T15:56:48;22.30;;;12.30;;
5878;SDS011;2965;42.640;23.370;2023-03-20T15:59:16;15.93;;;11.23;;
5878;SDS011;2965;42.640;23.370;2023-03-20T16:01:45;27.13;;;12.47;;
5878;SDS011;2965;42.640;23.370;2023-03-20T16:04:14;31.30;;;13.20;;
5878;SDS011;2965;42.640;23.370;2023-03-20T16:06:48;20.23;;;13.27;;
5878;SDS011;2965;42.640;23.370;2023-03-20T16:09:17;19.57;;;12.23;;
5878;SDS011;2965;42.640;23.370;2023-03-20T16:11:44;18.93;;;11.80;;
5878;SDS011;2965;42.640;23.370;2023-03-20T16:14:15;22.77;;;12.00;;
5878;SDS011;2965;42.640;23.370;2023-03-20T16:16:46;24.43;;;10.67;;
5878;SDS011;2965;42.640;23.370;2023-03-20T16:19:17;19.53;;;10.60;;
5878;SDS011;2965;42.640;23.370;2023-03-20T16:21:45;22.00;;;10.40;;
5878;SDS011;2965;42.640;23.370;2023-03-20T16:24:15;17.63;;;10.87;;
5878;SDS011;2965;42.640;23.370;2023-03-20T16:26:44;16.63;;;10.87;;
5878;SDS011;2965;42.640;23.370;2023-03-20T16:29:14;21.63;;;10.83;;
5878;SDS011;2965;42.640;23.370;2023-03-20T16:31:41;19.93;;;10.53;;
5878;SDS011;2965;42.640;23.370;2023-03-20T16:34:18;14.33;;;9.30;;
5878;SDS011;2965;42.640;23.370;2023-03-20T16:36:51;16.40;;;9.83;;
5878;SDS011;2965;42.640;23.370;2023-03-20T16:39:19;20.43;;;9.10;;
5878;SDS011;2965;42.640;23.370;2023-03-20T16:41:46;14.00;;;9.00;;
5878;SDS011;2965;42.640;23.370;2023-03-20T16:44:18;16.47;;;8.83;;
5878;SDS011;2965;42.640;23.370;2023-03-20T16:46:57;11.73;;;8.63;;
5878;SDS011;2965;42.640;23.370;2023-03-20T16:51:56;7.90;;;7.10;;
5878;SDS011;2965;42.640;23.370;2023-03-20T16:54:25;7.97;;;7.20;;
5878;SDS011;2965;42.640;23.370;2023-03-20T16:56:53;9.13;;;6.97;;
5878;SDS011;2965;42.640;23.370;2023-03-20T16:59:20;14.47;;;7.23;;
5878;SDS011;2965;42.640;23.370;2023-03-20T17:01:47;6.90;;;6.00;;
5878;SDS011;2965;42.640;23.370;2023-03-20T17:04:18;8.80;;;6.80;;
5878;SDS011;2965;42.640;23.370;2023-03-20T17:06:52;7.73;;;7.03;;
5878;SDS011;2965;42.640;23.370;2023-03-20T17:09:28;17.27;;;9.80;;
5878;SDS011;2965;42.640;23.370;2023-03-20T17:12:15;21.43;;;9.90;;
5878;SDS011;2965;42.640;23.370;2023-03-20T17:14:42;12.80;;;8.53;;
5878;SDS011;2965;42.640;23.370;2023-03-20T17:17:14;9.27;;;7.03;;
5878;SDS011;2965;42.640;23.370;2023-03-20T17:19:40;11.07;;;7.07;;
5878;SDS011;2965;42.640;23.370;2023-03-20T17:22:12;19.80;;;8.80;;
5878;SDS011;2965;42.640;23.370;2023-03-20T17:24:39;14.97;;;8.13;;
5878;SDS011;2965;42.640;23.370;2023-03-20T17:27:05;16.83;;;10.40;;
5878;SDS011;2965;42.640;23.370;2023-03-20T17:29:35;26.47;;;10.43;;
5878;SDS011;2965;42.640;23.370;2023-03-20T17:32:00;12.40;;;8.73;;
5878;SDS011;2965;42.640;23.370;2023-03-20T17:34:26;17.47;;;9.13;;
5878;SDS011;2965;42.640;23.370;2023-03-20T17:36:51;17.63;;;11.13;;
5878;SDS011;2965;42.640;23.370;2023-03-20T17:39:17;25.00;;;10.40;;
5878;SDS011;2965;42.640;23.370;2023-03-20T17:41:44;22.87;;;11.10;;
5878;SDS011;2965;42.640;23.370;2023-03-20T17:44:10;25.30;;;10.20;;
5878;SDS011;2965;42.640;23.370;2023-03-20T17:46:35;20.73;;;8.70;;
5878;SDS011;2965;42.640;23.370;2023-03-20T17:49:02;18.90;;;9.43;;
5878;SDS011;2965;42.640;23.370;2023-03-20T17:51:30;11.27;;;8.23;;
5878;SDS011;2965;42.640;23.370;2023-03-20T17:53:57;18.97;;;9.50;;
5878;SDS011;2965;42.640;23.370;2023-03-20T17:56:24;19.37;;;9.27;;
5878;SDS011;2965;42.640;23.370;2023-03-20T17:58:54;13.50;;;8.47;;
5878;SDS011;2965;42.640;23.370;2023-03-20T18:01:20;27.83;;;10.63;;
5878;SDS011;2965;42.640;23.370;2023-03-20T18:03:45;18.77;;;10.87;;
5878;SDS011;2965;42.640;23.370;2023-03-20T18:06:15;31.90;;;14.30;;
5878;SDS011;2965;42.640;23.370;2023-03-20T18:08:45;31.80;;;13.27;;
5878;SDS011;2965;42.640;23.370;2023-03-20T18:11:11;20.00;;;11.60;;
5878;SDS011;2965;42.640;23.370;2023-03-20T18:13:36;41.63;;;18.00;;
5878;SDS011;2965;42.640;23.370;2023-03-20T18:16:01;23.27;;;12.97;;
5878;SDS011;2965;42.640;23.370;2023-03-20T18:18:27;18.80;;;12.47;;
5878;SDS011;2965;42.640;23.370;2023-03-20T18:20:52;27.10;;;12.90;;
5878;SDS011;2965;42.640;23.370;2023-03-20T18:23:19;29.43;;;12.13;;
5878;SDS011;2965;42.640;23.370;2023-03-20T18:25:45;26.20;;;12.20;;
5878;SDS011;2965;42.640;23.370;2023-03-20T18:28:11;22.47;;;11.83;;
5878;SDS011;2965;42.640;23.370;2023-03-20T18:30:48;15.80;;;10.40;;
5878;SDS011;2965;42.640;23.370;2023-03-20T18:33:14;32.57;;;13.90;;
5878;SDS011;2965;42.640;23.370;2023-03-20T18:35:40;32.37;;;12.30;;
5878;SDS011;2965;42.640;23.370;2023-03-20T18:38:05;18.87;;;10.63;;
5878;SDS011;2965;42.640;23.370;2023-03-20T18:40:32;24.27;;;10.03;;
5878;SDS011;2965;42.640;23.370;2023-03-20T18:42:58;9.17;;;7.10;;
5878;SDS011;2965;42.640;23.370;2023-03-20T18:45:25;14.53;;;9.40;;
5878;SDS011;2965;42.640;23.370;2023-03-20T18:47:52;13.03;;;7.33;;
5878;SDS011;2965;42.640;23.370;2023-03-20T18:52:48;9.40;;;7.87;;
5878;SDS011;2965;42.640;23.370;2023-03-20T18:55:15;36.37;;;21.67;;
5878;SDS011;2965;42.640;23.370;2023-03-20T18:57:40;19.10;;;11.60;;
5878;SDS011;2965;42.640;23.370;2023-03-20T19:02:48;8.10;;;7.30;;
5878;SDS011;2965;42.640;23.370;2023-03-20T19:05:15;13.73;;;8.20;;
5878;SDS011;2965;42.640;23.370;2023-03-20T19:07:43;11.07;;;7.30;;
5878;SDS011;2965;42.640;23.370;2023-03-20T19:10:15;12.37;;;7.83;;
5878;SDS011;2965;42.640;23.370;2023-03-20T19:12:48;19.30;;;10.00;;
5878;SDS011;2965;42.640;23.370;2023-03-20T19:15:14;23.00;;;9.93;;
5878;SDS011;2965;42.640;23.370;2023-03-20T19:17:39;13.67;;;9.17;;
5878;SDS011;2965;42.640;23.370;2023-03-20T19:20:05;14.57;;;9.10;;
5878;SDS011;2965;42.640;23.370;2023-03-20T19:22:31;14.67;;;9.17;;
5878;SDS011;2965;42.640;23.370;2023-03-20T19:24:56;17.70;;;8.30;;
5878;SDS011;2965;42.640;23.370;2023-03-20T19:27:22;15.07;;;9.20;;
5878;SDS011;2965;42.640;23.370;2023-03-20T19:29:47;12.30;;;7.83;;
5878;SDS011;2965;42.640;23.370;2023-03-20T19:32:12;13.73;;;9.03;;
5878;SDS011;2965;42.640;23.370;2023-03-20T19:34:38;10.27;;;8.23;;
5878;SDS011;2965;42.640;23.370;2023-03-20T19:37:03;18.27;;;9.47;;
5878;SDS011;2965;42.640;23.370;2023-03-20T19:39:28;21.73;;;9.27;;
5878;SDS011;2965;42.640;23.370;2023-03-20T19:41:54;20.10;;;8.23;;
5878;SDS011;2965;42.640;23.370;2023-03-20T19:44:19;19.43;;;8.03;;
5878;SDS011;2965;42.640;23.370;2023-03-20T19:46:45;18.43;;;10.93;;
5878;SDS011;2965;42.640;23.370;2023-03-20T19:49:17;16.57;;;10.40;;
5878;SDS011;2965;42.640;23.370;2023-03-20T19:51:44;30.67;;;11.37;;
5878;SDS011;2965;42.640;23.370;2023-03-20T19:54:10;16.43;;;9.40;;
5878;SDS011;2965;42.640;23.370;2023-03-20T19:56:35;12.47;;;8.53;;
5878;SDS011;2965;42.640;23.370;2023-03-20T19:59:00;9.63;;;7.33;;
5878;SDS011;2965;42.640;23.370;2023-03-20T20:01:26;12.20;;;8.03;;
5878;SDS011;2965;42.640;23.370;2023-03-20T20:03:51;17.33;;;8.70;;
5878;SDS011;2965;42.640;23.370;2023-03-20T20:06:21;14.90;;;8.63;;
5878;SDS011;2965;42.640;23.370;2023-03-20T20:08:47;10.83;;;8.40;;
5878;SDS011;2965;42.640;23.370;2023-03-20T20:11:13;12.63;;;8.10;;
5878;SDS011;2965;42.640;23.370;2023-03-20T20:13:40;20.80;;;10.70;;
5878;SDS011;2965;42.640;23.370;2023-03-20T20:16:06;26.80;;;11.40;;
5878;SDS011;2965;42.640;23.370;2023-03-20T20:18:31;29.07;;;12.83;;
5878;SDS011;2965;42.640;23.370;2023-03-20T20:20:57;33.73;;;13.60;;
5878;SDS011;2965;42.640;23.370;2023-03-20T20:23:23;26.70;;;12.27;;
5878;SDS011;2965;42.640;23.370;2023-03-20T20:25:51;21.60;;;10.07;;
5878;SDS011;2965;42.640;23.370;2023-03-20T20:28:18;29.90;;;10.50;;
5878;SDS011;2965;42.640;23.370;2023-03-20T20:30:46;25.87;;;10.43;;
5878;SDS011;2965;42.640;23.370;2023-03-20T20:33:14;27.00;;;13.37;;
5878;SDS011;2965;42.640;23.370;2023-03-20T20:35:41;26.23;;;12.77;;
5878;SDS011;2965;42.640;23.370;2023-03-20T20:38:07;32.47;;;13.73;;
5878;SDS011;2965;42.640;23.370;2023-03-20T20:40:32;27.43;;;14.20;;
5878;SDS011;2965;42.640;23.370;2023-03-20T20:42:58;24.27;;;13.77;;
5878;SDS011;2965;42.640;23.370;2023-03-20T20:45:24;19.73;;;12.97;;
5878;SDS011;2965;42.640;23.370;2023-03-20T20:47:52;24.77;;;14.83;;
5878;SDS011;2965;42.640;23.370;2023-03-20T20:50:19;32.03;;;14.97;;
5878;SDS011;2965;42.640;23.370;2023-03-20T20:52:46;37.50;;;14.63;;
5878;SDS011;2965;42.640;23.370;2023-03-20T20:55:14;30.57;;;14.97;;
5878;SDS011;2965;42.640;23.370;2023-03-20T20:57:42;30.87;;;13.50;;
5878;SDS011;2965;42.640;23.370;2023-03-20T21:00:07;25.80;;;12.20;;
5878;SDS011;2965;42.640;23.370;2023-03-20T21:02:34;27.33;;;13.00;;
5878;SDS011;2965;42.640;23.370;2023-03-20T21:05:04;19.40;;;11.67;;
5878;SDS011;2965;42.640;23.370;2023-03-20T21:07:31;17.80;;;10.37;;
5878;SDS011;2965;42.640;23.370;2023-03-20T21:09:56;19.03;;;11.67;;
5878;SDS011;2965;42.640;23.370;2023-03-20T21:12:21;17.40;;;10.13;;
5878;SDS011;2965;42.640;23.370;2023-03-20T21:14:47;21.50;;;10.30;;
5878;SDS011;2965;42.640;23.370;2023-03-20T21:17:14;29.43;;;11.07;;
5878;SDS011;2965;42.640;23.370;2023-03-20T21:19:41;17.73;;;11.30;;
5878;SDS011;2965;42.640;23.370;2023-03-20T21:22:08;20.70;;;9.20;;
5878;SDS011;2965;42.640;23.370;2023-03-20T21:24:36;17.43;;;8.53;;
5878;SDS011;2965;42.640;23.370;2023-03-20T21:27:04;19.00;;;12.80;;
5878;SDS011;2965;42.640;23.370;2023-03-20T21:29:32;20.43;;;12.90;;
5878;SDS011;2965;42.640;23.370;2023-03-20T21:31:58;14.13;;;10.50;;
5878;SDS011;2965;42.640;23.370;2023-03-20T21:34:23;13.00;;;9.10;;
5878;SDS011;2965;42.640;23.370;2023-03-20T21:36:49;10.97;;;9.43;;
5878;SDS011;2965;42.640;23.370;2023-03-20T21:39:15;15.03;;;7.70;;
5878;SDS011;2965;42.640;23.370;2023-03-20T21:41:42;15.40;;;8.40;;
